createdAt,value
2017-12-13T00:04:44.208Z,100313
2017-12-13T00:09:45.724Z,100315
2017-12-13T00:14:47.225Z,100314
2017-12-13T00:19:48.769Z,100317
2017-12-13T00:24:50.303Z,100300
2017-12-13T00:29:51.877Z,100292
2017-12-13T00:34:53.388Z,100306
2017-12-13T00:39:54.893Z,100305
2017-12-13T00:44:57.126Z,100291
2017-12-13T00:49:58.630Z,100298
2017-12-13T00:55:00.188Z,100288
2017-12-13T01:00:01.761Z,100278
2017-12-13T01:05:03.275Z,100287
2017-12-13T01:10:04.769Z,100302
2017-12-13T01:15:06.272Z,100299
2017-12-13T01:20:07.787Z,100289
2017-12-13T01:25:09.268Z,100288
2017-12-13T01:30:10.766Z,100289
2017-12-13T01:35:12.301Z,100302
2017-12-13T01:40:14.477Z,100304
2017-12-13T01:45:15.985Z,100289
2017-12-13T01:50:17.513Z,100294
2017-12-13T01:55:19.017Z,100278
2017-12-13T02:00:20.508Z,100281
2017-12-13T02:05:22.005Z,100267
2017-12-13T02:10:23.502Z,100261
2017-12-13T02:15:25.037Z,100263
2017-12-13T02:20:26.604Z,100270
2017-12-13T02:25:28.118Z,100266
2017-12-13T02:30:29.641Z,100256
2017-12-13T02:35:31.149Z,100252
2017-12-13T02:40:51.009Z,100257
2017-12-13T02:45:59.364Z,100262
2017-12-13T02:51:00.856Z,100260
2017-12-13T02:56:03.177Z,100245
2017-12-13T03:01:04.705Z,100229
2017-12-13T03:06:06.167Z,100211
2017-12-13T03:11:07.670Z,100207
2017-12-13T03:16:09.168Z,100200
2017-12-13T03:21:10.693Z,100204
2017-12-13T03:26:12.938Z,100202
2017-12-13T03:31:14.456Z,100193
2017-12-13T03:36:15.976Z,100175
2017-12-13T03:41:17.543Z,100170
2017-12-13T03:46:19.101Z,100175
2017-12-13T03:51:20.622Z,100168
2017-12-13T03:56:22.202Z,100154
2017-12-13T04:01:23.726Z,100162
2017-12-13T04:06:25.222Z,100176
2017-12-13T04:11:26.727Z,100171
2017-12-13T04:16:28.369Z,100167
2017-12-13T04:21:30.261Z,100157
2017-12-13T04:26:31.863Z,100161
2017-12-13T04:31:33.663Z,100150
2017-12-13T04:36:35.202Z,100155
2017-12-13T04:41:36.941Z,100135
2017-12-13T04:46:38.970Z,100138
2017-12-13T04:51:41.412Z,100144
2017-12-13T04:56:42.949Z,100126
2017-12-13T05:01:45.198Z,100126
2017-12-13T05:06:46.864Z,100132
2017-12-13T05:11:48.393Z,100129
2017-12-13T05:16:49.954Z,100131
2017-12-13T05:21:51.491Z,100135
2017-12-13T05:26:53.744Z,100121
2017-12-13T05:31:55.282Z,100117
2017-12-13T05:36:56.786Z,100117
2017-12-13T05:41:58.286Z,100116
2017-12-13T05:47:00.520Z,100108
2017-12-13T05:52:02.047Z,100108
2017-12-13T05:57:03.658Z,100103
2017-12-13T06:02:05.172Z,100092
2017-12-13T06:07:07.398Z,100086
2017-12-13T06:12:08.904Z,100078
2017-12-13T06:17:10.550Z,100061
2017-12-13T06:22:12.066Z,100069
2017-12-13T06:27:14.319Z,100063
2017-12-13T06:32:22.818Z,100065
2017-12-13T06:37:24.361Z,100064
2017-12-13T06:42:25.868Z,100048
2017-12-13T06:47:27.392Z,100050
2017-12-13T06:52:28.859Z,100043
2017-12-13T06:57:30.497Z,100051
2017-12-13T07:02:32.007Z,100044
2017-12-13T07:07:33.486Z,100039
2017-12-13T07:12:35.036Z,100019
2017-12-13T07:17:36.521Z,100012
2017-12-13T07:22:38.864Z,100004
2017-12-13T07:27:41.099Z,99992
2017-12-13T07:32:42.634Z,99996
2017-12-13T07:37:44.157Z,99985
2017-12-13T07:42:45.727Z,99971
2017-12-13T07:47:47.206Z,99972
2017-12-13T07:52:49.448Z,99970
2017-12-13T07:57:50.909Z,99966
2017-12-13T08:02:52.431Z,99958
2017-12-13T08:07:54.712Z,99944
2017-12-13T08:12:57.025Z,99924
2017-12-13T08:17:58.559Z,99920
2017-12-13T08:23:00.820Z,99904
2017-12-13T08:28:02.376Z,99895
2017-12-13T08:33:03.896Z,99889
2017-12-13T08:38:05.498Z,99877
2017-12-13T08:43:07.061Z,99864
2017-12-13T08:48:08.569Z,99844
2017-12-13T08:53:10.098Z,99850
2017-12-13T08:58:11.635Z,99840
2017-12-13T09:03:20.938Z,99821
2017-12-13T09:08:22.378Z,99807
2017-12-13T09:13:23.920Z,99786
2017-12-13T09:18:25.417Z,99773
2017-12-13T09:23:26.949Z,99776
2017-12-13T09:28:29.183Z,99772
2017-12-13T09:33:30.746Z,99766
2017-12-13T09:38:32.285Z,99749
2017-12-13T09:43:33.769Z,99756
2017-12-13T09:48:35.256Z,99738
2017-12-13T09:53:36.854Z,99730
2017-12-13T09:58:39.105Z,99729
2017-12-13T10:03:40.691Z,99714
2017-12-13T10:08:42.191Z,99705
2017-12-13T10:13:43.737Z,99692
2017-12-13T10:18:45.280Z,99676
2017-12-13T10:23:46.816Z,99656
2017-12-13T10:28:55.328Z,99644
2017-12-13T10:33:57.574Z,99623
2017-12-13T10:38:59.073Z,99611
2017-12-13T10:44:00.605Z,99600
2017-12-13T10:49:02.086Z,99602
2017-12-13T10:54:03.623Z,99585
2017-12-13T10:59:05.154Z,99566
2017-12-13T11:04:06.641Z,99550
2017-12-13T11:09:08.154Z,99541
2017-12-13T11:14:09.638Z,99525
2017-12-13T11:19:11.909Z,99518
2017-12-13T11:24:14.152Z,99487
2017-12-13T11:29:15.671Z,99476
2017-12-13T11:34:17.946Z,99470
2017-12-13T11:39:20.220Z,99457
2017-12-13T11:44:21.794Z,99440
2017-12-13T11:49:24.063Z,99430
2017-12-13T11:54:31.577Z,99421
2017-12-13T11:59:33.044Z,99404
2017-12-13T12:04:34.561Z,99388
2017-12-13T12:09:36.108Z,99375
2017-12-13T12:14:38.573Z,99367
2017-12-13T12:19:40.134Z,99348
2017-12-13T12:24:41.667Z,99326
2017-12-13T12:29:43.186Z,99316
2017-12-13T12:34:45.446Z,99298
2017-12-13T12:39:46.980Z,99289
2017-12-13T12:44:48.509Z,99279
2017-12-13T12:49:50.819Z,99270
2017-12-13T12:54:52.372Z,99262
2017-12-13T12:59:53.901Z,99236
2017-12-13T13:04:55.445Z,99231
2017-12-13T13:09:57.020Z,99226
2017-12-13T13:14:58.520Z,99217
2017-12-13T13:20:07.680Z,99205
2017-12-13T13:25:09.972Z,99208
2017-12-13T13:30:11.630Z,99194
2017-12-13T13:35:20.929Z,99170
2017-12-13T13:40:22.461Z,99163
2017-12-13T13:45:24.000Z,99147
2017-12-13T13:50:26.237Z,99143
2017-12-13T13:55:27.772Z,99123
2017-12-13T14:00:29.311Z,99117
2017-12-13T14:05:30.865Z,99100
2017-12-13T14:10:32.351Z,99092
2017-12-13T14:15:33.969Z,99089
2017-12-13T14:20:35.497Z,99098
2017-12-13T14:25:37.774Z,99096
2017-12-13T14:30:40.062Z,99087
2017-12-13T14:35:42.336Z,99086
2017-12-13T14:40:43.903Z,99086
2017-12-13T14:45:45.463Z,99077
2017-12-13T14:50:46.980Z,99071
2017-12-13T14:55:48.512Z,99066
2017-12-13T15:00:50.022Z,99062
2017-12-13T15:05:51.545Z,99069
2017-12-13T15:10:53.068Z,99052
2017-12-13T15:15:54.634Z,99047
2017-12-13T15:20:56.191Z,99040
2017-12-13T15:25:57.756Z,99034
2017-12-13T15:30:59.287Z,99015
2017-12-13T15:36:01.536Z,99015
2017-12-13T15:41:03.227Z,98998
2017-12-13T15:46:04.837Z,98998
2017-12-13T15:51:06.350Z,98980
2017-12-13T15:56:07.875Z,98969
2017-12-13T16:01:09.491Z,98965
2017-12-13T16:06:11.057Z,98955
2017-12-13T16:11:12.604Z,98937
2017-12-13T16:16:14.207Z,98931
2017-12-13T16:21:15.707Z,98918
2017-12-13T16:26:17.297Z,98925
2017-12-13T16:31:18.940Z,98913
2017-12-13T16:36:20.457Z,98898
2017-12-13T16:41:22.061Z,98892
2017-12-13T16:46:24.406Z,98886
2017-12-13T16:51:25.925Z,98881
2017-12-13T16:56:27.483Z,98874
2017-12-13T17:01:29.730Z,98867
2017-12-13T17:06:31.259Z,98857
2017-12-13T17:11:32.831Z,98855
2017-12-13T17:16:34.334Z,98842
2017-12-13T17:21:35.836Z,98835
2017-12-13T17:26:38.125Z,98835
2017-12-13T17:31:39.659Z,98823
2017-12-13T17:36:41.208Z,98818
2017-12-13T17:41:42.757Z,98783
2017-12-13T17:46:44.266Z,98780
2017-12-13T17:51:45.747Z,98762
2017-12-13T17:56:48.078Z,98754
2017-12-13T18:01:49.641Z,98745
2017-12-13T18:06:51.217Z,98731
2017-12-13T18:11:52.733Z,98729
2017-12-13T18:16:55.546Z,98688
2017-12-13T18:21:57.183Z,98672
2017-12-13T18:26:58.748Z,98651
2017-12-13T18:32:00.305Z,98642
2017-12-13T18:37:01.761Z,98616
2017-12-13T18:42:03.199Z,98607
2017-12-13T18:47:04.635Z,98595
2017-12-13T18:52:06.938Z,98585
2017-12-13T18:57:08.500Z,98551
2017-12-13T19:02:10.790Z,98568
2017-12-13T19:07:12.323Z,98561
2017-12-13T19:12:13.907Z,98559
2017-12-13T19:17:16.215Z,98546
2017-12-13T19:22:17.716Z,98518
2017-12-13T19:27:19.208Z,98501
2017-12-13T19:32:20.674Z,98487
2017-12-13T19:37:22.290Z,98464
2017-12-13T19:42:23.739Z,98445
2017-12-13T19:47:25.365Z,98443
2017-12-13T19:52:26.943Z,98422
2017-12-13T19:57:28.485Z,98409
2017-12-13T20:02:30.187Z,98385
2017-12-13T20:07:31.730Z,98359
2017-12-13T20:12:33.272Z,98356
2017-12-13T20:17:34.886Z,98334
2017-12-13T20:22:36.465Z,98323
2017-12-13T20:27:37.992Z,98296
2017-12-13T20:32:39.537Z,98306
2017-12-13T20:37:41.002Z,98270
2017-12-13T20:42:42.623Z,98244
2017-12-13T20:47:44.138Z,98217
2017-12-13T20:52:45.721Z,98204
2017-12-13T20:57:47.298Z,98177
2017-12-13T21:02:48.836Z,98165
2017-12-13T21:07:50.379Z,98158
2017-12-13T21:12:51.933Z,98161
2017-12-13T21:17:53.494Z,98151
2017-12-13T21:22:55.103Z,98131
2017-12-13T21:27:57.340Z,98106
2017-12-13T21:32:58.881Z,98103
2017-12-13T21:38:00.339Z,98085
2017-12-13T21:43:01.924Z,98067
2017-12-13T21:48:03.449Z,98055
2017-12-13T21:53:05.726Z,98047
2017-12-13T21:58:07.954Z,98041
2017-12-13T22:03:09.588Z,98021
2017-12-13T22:08:11.818Z,98027
2017-12-13T22:13:13.367Z,98011
2017-12-13T22:18:14.896Z,97995
2017-12-13T22:23:17.149Z,97990
2017-12-13T22:28:19.512Z,97984
2017-12-13T22:33:21.006Z,97985
2017-12-13T22:38:22.510Z,97966
2017-12-13T22:43:24.733Z,97977
2017-12-13T22:48:26.224Z,97966
2017-12-13T22:53:27.836Z,97955
2017-12-13T22:58:29.401Z,97941
2017-12-13T23:03:31.677Z,97962
2017-12-13T23:08:33.331Z,97978
2017-12-13T23:13:34.837Z,97984
2017-12-13T23:18:36.326Z,98003
2017-12-13T23:23:37.854Z,98004
2017-12-13T23:28:40.149Z,97993
2017-12-13T23:33:42.403Z,97966
2017-12-13T23:38:43.949Z,97940
2017-12-13T23:43:45.481Z,97925
2017-12-13T23:48:46.988Z,97940
2017-12-13T23:53:48.508Z,97928
2017-12-13T23:58:50.804Z,97918
